Hankins, New York
Current Conditions -  °F | °C
As of 2:15 AM on Friday 28 Nov 2014 (Local Time) from KMSV Reporting Station
Few Clouds Few Clouds  
Wind Chill: 12°   Ceiling: Unl
Heat Index: 21°   Visibility: 10mi
Dew Point: 19°   Wind: 8mph
Humidity: 93%   Direction: 280°W
Pressure: 30.01"   Gusts: NA
Location:  41.81°N, 75.09°W
Report Text: KMSV 280715Z AUTO 28007KT 10SM FEW022 M06/M07 A3001 RMK AO1
Loading
Personal Weather Stations






























Interactive Weather Map New forecast layout! Learn more

10-Day Weather Forecast

Advertisements
Track Severe Weather on mobile